Edon, OH (43518)

9:51 AM EST on February 24, 2017 (GMT -0500)
Edgerton | | Change Station

Elev 876 ft 41.45 °N, 84.69 °W | Updated 5 seconds ago

Mostly Cloudy
Mostly Cloudy
56.1 °F
Feels Like 56.1 °F
N
12.1
Wind Variable Wind from South
Gusts 12.3 mph

Today
High -- | Low -- °F
--% Chance of Precip.
Yesterday
High -- | Low -- °F
Precip. -- in
Pressure 29.54 in
Visibility 10.0 miles
Clouds Clear
Dew Point 37 °F
Humidity 48%
Rainfall 0.04 in
Snow Depth Not available.
7:21 AM 6:24 PM
Waning Crescent, 5% visible
METAR KANQ 241435Z AUTO 16009KT 10SM CLR 12/12 A2954 RMK
Pressure 29.54 in
Visibility 10.0 miles
Clouds Clear
Dew Point 37 °F
Humidity 48%
Rainfall 0.04 in
Snow Depth Not available.
7:21 AM 6:24 PM
Waning Crescent, 5% visible
METAR KANQ 241435Z AUTO 16009KT 10SM CLR 12/12 A2954 RMK

Get Your Daily Forecast Email!

Thanks for signing up!

Be on the lookout for a verification email in your inbox.

You'll start receiving the daily forecast at 8 AM.

×

10-Day Weather Forecast

Almanac

Astronomy

Feb. 24, 2017 Rise Set
Actual Time
Civil Twilight
Nautical Twilight
Astronomical Twilight
Moon
Length of Visible Light
Length of Day
Tomorrow will be .
, % of the Moon is Illuminated

Today's Extremes

State Highs State Lows

Community

WunderPhotos

Upload Photos

1,962,540 photos uploaded!

WunderBlog® & News

Nearby

Air Quality

  Air Quality AQ Index Pollutant
Not available.

Snow Depth

Station Depth Elevation

Earthquake Activity

City Distance Mag. Time & Date
Minimum magnitude displayed is 2.5.

Coastal Water Temperatures

Place Temperature

Stations

Nearby Weather Stations

Station Location Temp. Windchill Dew Point Humidity Wind Precip. Elev Updated Type
                   

Watches & Warnings

There are currently no watches in effect.